sensor_id;sensor_type;location;lat;lon;timestamp;temperature;humidity
19248;DHT22;9758;48.640;8.148;2022-07-10T00:00:37;23.30;36.50
19248;DHT22;9758;48.640;8.148;2022-07-10T00:03:04;23.20;36.50
19248;DHT22;9758;48.640;8.148;2022-07-10T00:05:32;23.20;36.60
19248;DHT22;9758;48.640;8.148;2022-07-10T00:08:01;23.20;36.60
19248;DHT22;9758;48.640;8.148;2022-07-10T00:10:28;23.10;37.30
19248;DHT22;9758;48.640;8.148;2022-07-10T00:12:55;23.10;36.70
19248;DHT22;9758;48.640;8.148;2022-07-10T00:15:22;23.00;36.70
19248;DHT22;9758;48.640;8.148;2022-07-10T00:17:49;23.00;36.80
19248;DHT22;9758;48.640;8.148;2022-07-10T00:20:16;22.90;36.80
19248;DHT22;9758;48.640;8.148;2022-07-10T00:22:43;22.90;36.80
19248;DHT22;9758;48.640;8.148;2022-07-10T00:25:12;22.90;36.90
19248;DHT22;9758;48.640;8.148;2022-07-10T00:27:43;22.80;36.90
19248;DHT22;9758;48.640;8.148;2022-07-10T00:30:11;22.90;37.00
19248;DHT22;9758;48.640;8.148;2022-07-10T00:32:38;22.80;37.00
19248;DHT22;9758;48.640;8.148;2022-07-10T00:35:05;22.80;37.10
19248;DHT22;9758;48.640;8.148;2022-07-10T00:37:33;22.70;37.10
19248;DHT22;9758;48.640;8.148;2022-07-10T00:39:59;22.70;37.20
19248;DHT22;9758;48.640;8.148;2022-07-10T00:42:28;22.70;37.20
19248;DHT22;9758;48.640;8.148;2022-07-10T00:44:54;22.70;37.30
19248;DHT22;9758;48.640;8.148;2022-07-10T00:47:21;22.60;37.30
19248;DHT22;9758;48.640;8.148;2022-07-10T00:49:49;22.60;37.30
19248;DHT22;9758;48.640;8.148;2022-07-10T00:52:17;22.50;37.40
19248;DHT22;9758;48.640;8.148;2022-07-10T00:54:45;22.50;37.40
19248;DHT22;9758;48.640;8.148;2022-07-10T00:57:13;22.50;37.50
19248;DHT22;9758;48.640;8.148;2022-07-10T00:59:42;22.40;37.50
19248;DHT22;9758;48.640;8.148;2022-07-10T01:02:10;22.40;37.50
19248;DHT22;9758;48.640;8.148;2022-07-10T01:04:37;22.30;37.60
19248;DHT22;9758;48.640;8.148;2022-07-10T01:07:04;22.20;37.60
19248;DHT22;9758;48.640;8.148;2022-07-10T01:09:32;22.20;37.70
19248;DHT22;9758;48.640;8.148;2022-07-10T01:12:00;22.10;37.70
19248;DHT22;9758;48.640;8.148;2022-07-10T01:14:28;22.10;37.80
19248;DHT22;9758;48.640;8.148;2022-07-10T01:16:56;22.10;37.90
19248;DHT22;9758;48.640;8.148;2022-07-10T01:19:23;22.00;37.90
19248;DHT22;9758;48.640;8.148;2022-07-10T01:21:51;21.90;38.00
19248;DHT22;9758;48.640;8.148;2022-07-10T01:24:18;21.90;38.10
19248;DHT22;9758;48.640;8.148;2022-07-10T01:26:45;21.90;38.20
19248;DHT22;9758;48.640;8.148;2022-07-10T01:29:11;21.80;38.20
19248;DHT22;9758;48.640;8.148;2022-07-10T01:31:39;21.80;38.30
19248;DHT22;9758;48.640;8.148;2022-07-10T01:34:07;21.70;38.30
19248;DHT22;9758;48.640;8.148;2022-07-10T01:36:35;21.70;38.40
19248;DHT22;9758;48.640;8.148;2022-07-10T01:39:04;21.70;38.40
19248;DHT22;9758;48.640;8.148;2022-07-10T01:41:31;21.70;38.50
19248;DHT22;9758;48.640;8.148;2022-07-10T01:43:57;21.70;38.50
19248;DHT22;9758;48.640;8.148;2022-07-10T01:46:24;21.70;38.60
19248;DHT22;9758;48.640;8.148;2022-07-10T01:48:51;21.70;38.60
19248;DHT22;9758;48.640;8.148;2022-07-10T01:51:18;21.70;38.70
19248;DHT22;9758;48.640;8.148;2022-07-10T01:53:45;21.60;38.60
19248;DHT22;9758;48.640;8.148;2022-07-10T01:56:14;21.70;38.70
19248;DHT22;9758;48.640;8.148;2022-07-10T01:58:42;21.70;38.70
19248;DHT22;9758;48.640;8.148;2022-07-10T02:01:09;21.70;38.70
19248;DHT22;9758;48.640;8.148;2022-07-10T02:03:36;21.70;38.80
19248;DHT22;9758;48.640;8.148;2022-07-10T02:06:20;21.70;38.80
19248;DHT22;9758;48.640;8.148;2022-07-10T02:08:47;21.70;38.80
19248;DHT22;9758;48.640;8.148;2022-07-10T02:11:27;21.70;38.90
19248;DHT22;9758;48.640;8.148;2022-07-10T02:13:54;21.70;39.00
19248;DHT22;9758;48.640;8.148;2022-07-10T02:16:20;21.70;38.90
19248;DHT22;9758;48.640;8.148;2022-07-10T02:18:47;21.70;38.90
19248;DHT22;9758;48.640;8.148;2022-07-10T02:21:14;21.70;38.90
19248;DHT22;9758;48.640;8.148;2022-07-10T02:23:40;21.70;39.10
19248;DHT22;9758;48.640;8.148;2022-07-10T02:26:07;21.70;39.40
19248;DHT22;9758;48.640;8.148;2022-07-10T02:28:35;21.70;39.10
19248;DHT22;9758;48.640;8.148;2022-07-10T02:31:02;21.80;39.30
19248;DHT22;9758;48.640;8.148;2022-07-10T02:33:29;21.70;39.20
19248;DHT22;9758;48.640;8.148;2022-07-10T02:35:55;21.70;39.30
19248;DHT22;9758;48.640;8.148;2022-07-10T02:38:22;21.70;39.40
19248;DHT22;9758;48.640;8.148;2022-07-10T02:40:49;21.60;39.30
19248;DHT22;9758;48.640;8.148;2022-07-10T02:43:16;21.60;39.40
19248;DHT22;9758;48.640;8.148;2022-07-10T02:45:44;21.60;39.50
19248;DHT22;9758;48.640;8.148;2022-07-10T02:48:11;21.60;39.50
19248;DHT22;9758;48.640;8.148;2022-07-10T02:50:37;21.60;39.50
19248;DHT22;9758;48.640;8.148;2022-07-10T02:53:04;21.60;39.50
19248;DHT22;9758;48.640;8.148;2022-07-10T02:55:32;21.60;39.50
19248;DHT22;9758;48.640;8.148;2022-07-10T02:57:59;21.60;39.60
19248;DHT22;9758;48.640;8.148;2022-07-10T03:00:26;21.60;39.60
19248;DHT22;9758;48.640;8.148;2022-07-10T03:02:55;21.60;39.60
19248;DHT22;9758;48.640;8.148;2022-07-10T03:05:22;21.60;39.60
19248;DHT22;9758;48.640;8.148;2022-07-10T03:07:49;21.60;39.60
19248;DHT22;9758;48.640;8.148;2022-07-10T03:10:15;21.60;39.60
19248;DHT22;9758;48.640;8.148;2022-07-10T03:12:42;21.60;39.50
19248;DHT22;9758;48.640;8.148;2022-07-10T03:15:09;21.50;39.50
19248;DHT22;9758;48.640;8.148;2022-07-10T03:17:36;21.50;39.50
19248;DHT22;9758;48.640;8.148;2022-07-10T03:20:06;21.40;39.60
19248;DHT22;9758;48.640;8.148;2022-07-10T03:22:34;21.40;39.60
19248;DHT22;9758;48.640;8.148;2022-07-10T03:25:01;21.30;39.60
19248;DHT22;9758;48.640;8.148;2022-07-10T03:27:27;21.20;39.70
19248;DHT22;9758;48.640;8.148;2022-07-10T03:29:54;21.20;39.80
19248;DHT22;9758;48.640;8.148;2022-07-10T03:32:21;21.10;39.80
19248;DHT22;9758;48.640;8.148;2022-07-10T03:34:48;21.10;40.00
19248;DHT22;9758;48.640;8.148;2022-07-10T03:37:16;21.00;40.00
19248;DHT22;9758;48.640;8.148;2022-07-10T03:39:42;21.00;40.00
19248;DHT22;9758;48.640;8.148;2022-07-10T03:42:09;20.90;40.00
19248;DHT22;9758;48.640;8.148;2022-07-10T03:44:36;20.90;40.10
19248;DHT22;9758;48.640;8.148;2022-07-10T03:47:03;20.80;40.10
19248;DHT22;9758;48.640;8.148;2022-07-10T03:49:30;20.80;40.20
19248;DHT22;9758;48.640;8.148;2022-07-10T03:51:59;20.80;40.20
19248;DHT22;9758;48.640;8.148;2022-07-10T03:54:28;20.80;40.20
19248;DHT22;9758;48.640;8.148;2022-07-10T03:56:55;20.80;40.20
19248;DHT22;9758;48.640;8.148;2022-07-10T03:59:39;20.80;40.30
19248;DHT22;9758;48.640;8.148;2022-07-10T04:02:06;20.70;40.30
19248;DHT22;9758;48.640;8.148;2022-07-10T04:04:33;20.70;40.30
19248;DHT22;9758;48.640;8.148;2022-07-10T04:07:00;20.60;40.30
19248;DHT22;9758;48.640;8.148;2022-07-10T04:09:28;20.60;40.30
19248;DHT22;9758;48.640;8.148;2022-07-10T04:12:04;20.50;40.30
19248;DHT22;9758;48.640;8.148;2022-07-10T04:14:30;20.50;40.50
19248;DHT22;9758;48.640;8.148;2022-07-10T04:16:57;20.50;40.50
19248;DHT22;9758;48.640;8.148;2022-07-10T04:19:24;20.50;40.50
19248;DHT22;9758;48.640;8.148;2022-07-10T04:21:51;20.40;40.50
19248;DHT22;9758;48.640;8.148;2022-07-10T04:24:17;20.30;40.60
19248;DHT22;9758;48.640;8.148;2022-07-10T04:26:45;20.30;40.70
19248;DHT22;9758;48.640;8.148;2022-07-10T04:29:12;20.30;40.70
19248;DHT22;9758;48.640;8.148;2022-07-10T04:31:39;20.30;40.80
19248;DHT22;9758;48.640;8.148;2022-07-10T04:34:06;20.30;40.80
19248;DHT22;9758;48.640;8.148;2022-07-10T04:36:33;20.20;40.80
19248;DHT22;9758;48.640;8.148;2022-07-10T04:39:00;20.20;40.90
19248;DHT22;9758;48.640;8.148;2022-07-10T04:41:26;20.20;40.90
19248;DHT22;9758;48.640;8.148;2022-07-10T04:43:54;20.20;40.90
19248;DHT22;9758;48.640;8.148;2022-07-10T04:46:21;20.20;41.00
19248;DHT22;9758;48.640;8.148;2022-07-10T04:48:48;20.20;41.00
19248;DHT22;9758;48.640;8.148;2022-07-10T04:51:16;20.20;41.00
19248;DHT22;9758;48.640;8.148;2022-07-10T04:53:42;20.10;41.00
19248;DHT22;9758;48.640;8.148;2022-07-10T04:56:09;20.10;41.10
19248;DHT22;9758;48.640;8.148;2022-07-10T04:58:36;20.10;41.10
19248;DHT22;9758;48.640;8.148;2022-07-10T05:01:04;20.10;41.10
19248;DHT22;9758;48.640;8.148;2022-07-10T05:03:31;20.10;41.10
19248;DHT22;9758;48.640;8.148;2022-07-10T05:05:58;20.10;41.10
19248;DHT22;9758;48.640;8.148;2022-07-10T05:08:25;20.10;41.20
19248;DHT22;9758;48.640;8.148;2022-07-10T05:10:51;20.00;41.20
19248;DHT22;9758;48.640;8.148;2022-07-10T05:13:18;20.00;41.20
19248;DHT22;9758;48.640;8.148;2022-07-10T05:15:45;20.00;41.20
19248;DHT22;9758;48.640;8.148;2022-07-10T05:18:14;20.00;41.20
19248;DHT22;9758;48.640;8.148;2022-07-10T05:20:41;20.00;41.30
19248;DHT22;9758;48.640;8.148;2022-07-10T05:23:09;20.00;41.30
19248;DHT22;9758;48.640;8.148;2022-07-10T05:25:37;20.00;41.30
19248;DHT22;9758;48.640;8.148;2022-07-10T05:28:04;20.00;41.30
19248;DHT22;9758;48.640;8.148;2022-07-10T05:30:31;20.00;41.30
19248;DHT22;9758;48.640;8.148;2022-07-10T05:32:58;20.10;41.30
19248;DHT22;9758;48.640;8.148;2022-07-10T05:35:26;20.00;41.20
19248;DHT22;9758;48.640;8.148;2022-07-10T05:37:53;20.00;41.30
19248;DHT22;9758;48.640;8.148;2022-07-10T05:40:20;19.90;41.30
19248;DHT22;9758;48.640;8.148;2022-07-10T05:42:47;20.00;41.40
19248;DHT22;9758;48.640;8.148;2022-07-10T05:45:50;20.00;41.50
19248;DHT22;9758;48.640;8.148;2022-07-10T05:48:16;20.00;41.80
19248;DHT22;9758;48.640;8.148;2022-07-10T05:50:46;20.00;41.60
19248;DHT22;9758;48.640;8.148;2022-07-10T05:53:13;20.00;41.60
19248;DHT22;9758;48.640;8.148;2022-07-10T05:55:39;20.00;41.60
19248;DHT22;9758;48.640;8.148;2022-07-10T05:58:06;20.00;41.60
19248;DHT22;9758;48.640;8.148;2022-07-10T06:00:33;20.10;41.60
19248;DHT22;9758;48.640;8.148;2022-07-10T06:02:59;20.20;41.60
19248;DHT22;9758;48.640;8.148;2022-07-10T06:05:26;20.20;41.60
19248;DHT22;9758;48.640;8.148;2022-07-10T06:07:54;20.20;41.60
19248;DHT22;9758;48.640;8.148;2022-07-10T06:10:21;20.30;41.60
19248;DHT22;9758;48.640;8.148;2022-07-10T06:12:48;20.30;41.50
19248;DHT22;9758;48.640;8.148;2022-07-10T06:15:15;20.40;41.60
19248;DHT22;9758;48.640;8.148;2022-07-10T06:17:41;20.40;41.50
19248;DHT22;9758;48.640;8.148;2022-07-10T06:20:09;20.40;41.60
19248;DHT22;9758;48.640;8.148;2022-07-10T06:22:36;20.40;41.70
19248;DHT22;9758;48.640;8.148;2022-07-10T06:25:06;20.40;41.60
19248;DHT22;9758;48.640;8.148;2022-07-10T06:27:34;20.40;41.90
19248;DHT22;9758;48.640;8.148;2022-07-10T06:30:01;20.50;41.70
19248;DHT22;9758;48.640;8.148;2022-07-10T06:32:27;20.50;41.90
19248;DHT22;9758;48.640;8.148;2022-07-10T06:34:54;20.50;41.70
19248;DHT22;9758;48.640;8.148;2022-07-10T06:37:22;20.40;41.70
19248;DHT22;9758;48.640;8.148;2022-07-10T06:39:49;20.50;42.00
19248;DHT22;9758;48.640;8.148;2022-07-10T06:42:17;20.40;41.90
19248;DHT22;9758;48.640;8.148;2022-07-10T06:44:44;20.50;42.00
19248;DHT22;9758;48.640;8.148;2022-07-10T06:47:12;20.50;41.90
19248;DHT22;9758;48.640;8.148;2022-07-10T06:49:56;20.50;41.90
19248;DHT22;9758;48.640;8.148;2022-07-10T06:52:23;20.60;41.90
19248;DHT22;9758;48.640;8.148;2022-07-10T06:54:50;20.70;41.90
19248;DHT22;9758;48.640;8.148;2022-07-10T06:57:20;20.80;41.80
19248;DHT22;9758;48.640;8.148;2022-07-10T06:59:47;20.90;41.70
19248;DHT22;9758;48.640;8.148;2022-07-10T07:02:13;21.00;41.60
19248;DHT22;9758;48.640;8.148;2022-07-10T07:04:40;21.10;41.50
19248;DHT22;9758;48.640;8.148;2022-07-10T07:07:07;21.20;41.50
19248;DHT22;9758;48.640;8.148;2022-07-10T07:09:34;21.30;41.40
19248;DHT22;9758;48.640;8.148;2022-07-10T07:12:01;21.40;41.40
19248;DHT22;9758;48.640;8.148;2022-07-10T07:14:30;21.40;41.20
19248;DHT22;9758;48.640;8.148;2022-07-10T07:16:57;21.50;41.20
19248;DHT22;9758;48.640;8.148;2022-07-10T07:19:26;21.60;41.30
19248;DHT22;9758;48.640;8.148;2022-07-10T07:21:58;21.60;41.20
19248;DHT22;9758;48.640;8.148;2022-07-10T07:24:42;21.70;41.10
19248;DHT22;9758;48.640;8.148;2022-07-10T07:27:10;21.70;41.10
19248;DHT22;9758;48.640;8.148;2022-07-10T07:29:38;21.70;41.40
19248;DHT22;9758;48.640;8.148;2022-07-10T07:32:06;21.70;41.20
19248;DHT22;9758;48.640;8.148;2022-07-10T07:34:32;21.50;41.10
19248;DHT22;9758;48.640;8.148;2022-07-10T07:36:59;21.40;41.30
19248;DHT22;9758;48.640;8.148;2022-07-10T07:39:26;21.40;41.50
19248;DHT22;9758;48.640;8.148;2022-07-10T07:41:52;21.30;42.20
19248;DHT22;9758;48.640;8.148;2022-07-10T07:44:19;21.30;41.70
19248;DHT22;9758;48.640;8.148;2022-07-10T07:46:47;21.20;41.50
19248;DHT22;9758;48.640;8.148;2022-07-10T07:49:14;21.20;41.70
19248;DHT22;9758;48.640;8.148;2022-07-10T07:51:41;21.20;41.80
19248;DHT22;9758;48.640;8.148;2022-07-10T07:54:08;21.30;41.80
19248;DHT22;9758;48.640;8.148;2022-07-10T07:56:34;21.40;41.80
19248;DHT22;9758;48.640;8.148;2022-07-10T07:59:01;21.50;41.60
19248;DHT22;9758;48.640;8.148;2022-07-10T08:01:28;21.50;41.50
19248;DHT22;9758;48.640;8.148;2022-07-10T08:03:56;21.60;41.40
19248;DHT22;9758;48.640;8.148;2022-07-10T08:06:23;21.60;41.50
19248;DHT22;9758;48.640;8.148;2022-07-10T08:08:49;21.50;41.40
19248;DHT22;9758;48.640;8.148;2022-07-10T08:11:16;21.60;41.50
19248;DHT22;9758;48.640;8.148;2022-07-10T08:13:43;21.60;41.40
19248;DHT22;9758;48.640;8.148;2022-07-10T08:16:10;21.70;41.40
19248;DHT22;9758;48.640;8.148;2022-07-10T08:18:37;21.70;41.20
19248;DHT22;9758;48.640;8.148;2022-07-10T08:21:05;21.70;41.30
19248;DHT22;9758;48.640;8.148;2022-07-10T08:23:32;21.70;41.30
19248;DHT22;9758;48.640;8.148;2022-07-10T08:25:59;21.60;41.30
19248;DHT22;9758;48.640;8.148;2022-07-10T08:28:25;21.60;41.30
19248;DHT22;9758;48.640;8.148;2022-07-10T08:30:52;21.70;41.40
19248;DHT22;9758;48.640;8.148;2022-07-10T08:33:19;21.70;41.40
19248;DHT22;9758;48.640;8.148;2022-07-10T08:35:46;21.80;41.40
19248;DHT22;9758;48.640;8.148;2022-07-10T08:38:14;21.80;41.20
19248;DHT22;9758;48.640;8.148;2022-07-10T08:40:41;21.90;41.20
19248;DHT22;9758;48.640;8.148;2022-07-10T08:43:09;21.90;41.20
19248;DHT22;9758;48.640;8.148;2022-07-10T08:45:36;21.90;41.30
19248;DHT22;9758;48.640;8.148;2022-07-10T08:48:04;21.90;41.30
19248;DHT22;9758;48.640;8.148;2022-07-10T08:50:33;22.00;41.40
19248;DHT22;9758;48.640;8.148;2022-07-10T08:53:02;22.00;41.30
19248;DHT22;9758;48.640;8.148;2022-07-10T08:55:32;22.20;41.40
19248;DHT22;9758;48.640;8.148;2022-07-10T08:57:59;22.20;41.20
19248;DHT22;9758;48.640;8.148;2022-07-10T09:00:27;22.20;41.10
19248;DHT22;9758;48.640;8.148;2022-07-10T09:02:54;22.20;41.10
19248;DHT22;9758;48.640;8.148;2022-07-10T09:05:22;22.30;41.10
19248;DHT22;9758;48.640;8.148;2022-07-10T09:07:49;22.30;41.10
19248;DHT22;9758;48.640;8.148;2022-07-10T09:10:16;22.30;41.00
19248;DHT22;9758;48.640;8.148;2022-07-10T09:12:52;22.30;41.00
19248;DHT22;9758;48.640;8.148;2022-07-10T09:15:20;22.20;40.90
19248;DHT22;9758;48.640;8.148;2022-07-10T09:17:55;22.20;41.10
19248;DHT22;9758;48.640;8.148;2022-07-10T09:20:32;22.30;41.20
19248;DHT22;9758;48.640;8.148;2022-07-10T09:23:08;22.30;41.10
19248;DHT22;9758;48.640;8.148;2022-07-10T09:25:36;22.30;40.90
19248;DHT22;9758;48.640;8.148;2022-07-10T09:28:04;22.30;41.00
19248;DHT22;9758;48.640;8.148;2022-07-10T09:30:35;22.30;41.00
19248;DHT22;9758;48.640;8.148;2022-07-10T09:33:31;22.40;41.00
19248;DHT22;9758;48.640;8.148;2022-07-10T09:36:02;22.40;40.90
19248;DHT22;9758;48.640;8.148;2022-07-10T09:38:52;22.40;40.90
19248;DHT22;9758;48.640;8.148;2022-07-10T09:41:21;22.40;41.00
19248;DHT22;9758;48.640;8.148;2022-07-10T09:43:51;22.50;40.90
19248;DHT22;9758;48.640;8.148;2022-07-10T09:46:19;22.50;40.80
19248;DHT22;9758;48.640;8.148;2022-07-10T09:48:46;22.60;40.70
19248;DHT22;9758;48.640;8.148;2022-07-10T09:51:33;22.60;40.70
19248;DHT22;9758;48.640;8.148;2022-07-10T09:54:01;22.60;40.70
19248;DHT22;9758;48.640;8.148;2022-07-10T09:56:36;22.60;40.60
19248;DHT22;9758;48.640;8.148;2022-07-10T09:59:08;22.50;40.60
19248;DHT22;9758;48.640;8.148;2022-07-10T10:01:36;22.50;40.70
19248;DHT22;9758;48.640;8.148;2022-07-10T10:04:04;22.50;40.60
19248;DHT22;9758;48.640;8.148;2022-07-10T10:06:31;22.50;40.70
19248;DHT22;9758;48.640;8.148;2022-07-10T10:09:07;22.40;40.70
19248;DHT22;9758;48.640;8.148;2022-07-10T10:11:38;22.40;40.70
19248;DHT22;9758;48.640;8.148;2022-07-10T10:14:08;22.40;40.80
19248;DHT22;9758;48.640;8.148;2022-07-10T10:16:35;22.50;40.80
19248;DHT22;9758;48.640;8.148;2022-07-10T10:19:03;22.60;40.60
19248;DHT22;9758;48.640;8.148;2022-07-10T10:21:47;22.70;40.50
19248;DHT22;9758;48.640;8.148;2022-07-10T10:24:14;22.80;40.50
19248;DHT22;9758;48.640;8.148;2022-07-10T10:26:43;22.80;40.30
19248;DHT22;9758;48.640;8.148;2022-07-10T10:29:12;22.90;40.30
19248;DHT22;9758;48.640;8.148;2022-07-10T10:31:39;22.90;40.20
19248;DHT22;9758;48.640;8.148;2022-07-10T10:34:07;22.90;40.20
19248;DHT22;9758;48.640;8.148;2022-07-10T10:36:45;23.00;40.20
19248;DHT22;9758;48.640;8.148;2022-07-10T10:39:13;23.10;40.00
19248;DHT22;9758;48.640;8.148;2022-07-10T10:41:45;23.10;40.00
19248;DHT22;9758;48.640;8.148;2022-07-10T10:44:49;23.10;40.00
19248;DHT22;9758;48.640;8.148;2022-07-10T10:47:57;23.10;40.00
19248;DHT22;9758;48.640;8.148;2022-07-10T10:50:36;23.20;39.90
19248;DHT22;9758;48.640;8.148;2022-07-10T10:53:04;23.20;39.80
19248;DHT22;9758;48.640;8.148;2022-07-10T10:55:31;23.20;39.80
19248;DHT22;9758;48.640;8.148;2022-07-10T10:58:14;23.20;39.80
19248;DHT22;9758;48.640;8.148;2022-07-10T11:00:42;23.30;39.80
19248;DHT22;9758;48.640;8.148;2022-07-10T11:03:13;23.30;39.70
19248;DHT22;9758;48.640;8.148;2022-07-10T11:05:42;23.30;39.70
19248;DHT22;9758;48.640;8.148;2022-07-10T11:08:09;23.40;39.80
19248;DHT22;9758;48.640;8.148;2022-07-10T11:10:38;23.40;39.60
19248;DHT22;9758;48.640;8.148;2022-07-10T11:13:06;23.50;39.60
19248;DHT22;9758;48.640;8.148;2022-07-10T11:15:37;23.50;39.50
19248;DHT22;9758;48.640;8.148;2022-07-10T11:18:06;23.60;39.50
19248;DHT22;9758;48.640;8.148;2022-07-10T11:20:34;23.70;39.50
19248;DHT22;9758;48.640;8.148;2022-07-10T11:23:25;23.70;39.30
19248;DHT22;9758;48.640;8.148;2022-07-10T11:26:02;23.70;39.20
19248;DHT22;9758;48.640;8.148;2022-07-10T11:28:44;23.80;39.30
19248;DHT22;9758;48.640;8.148;2022-07-10T11:31:13;23.90;39.30
19248;DHT22;9758;48.640;8.148;2022-07-10T11:33:42;23.90;39.00
19248;DHT22;9758;48.640;8.148;2022-07-10T11:36:12;23.90;39.00
19248;DHT22;9758;48.640;8.148;2022-07-10T11:38:40;23.90;38.80
19248;DHT22;9758;48.640;8.148;2022-07-10T11:41:13;23.90;38.90
19248;DHT22;9758;48.640;8.148;2022-07-10T11:43:46;23.90;38.90
19248;DHT22;9758;48.640;8.148;2022-07-10T11:46:13;23.90;38.80
19248;DHT22;9758;48.640;8.148;2022-07-10T11:48:42;23.90;38.90
19248;DHT22;9758;48.640;8.148;2022-07-10T11:51:22;23.90;38.90
19248;DHT22;9758;48.640;8.148;2022-07-10T11:53:54;24.00;38.80
19248;DHT22;9758;48.640;8.148;2022-07-10T11:56:21;24.10;38.80
19248;DHT22;9758;48.640;8.148;2022-07-10T11:58:54;24.20;38.70
19248;DHT22;9758;48.640;8.148;2022-07-10T12:01:23;24.20;38.70
19248;DHT22;9758;48.640;8.148;2022-07-10T12:03:59;24.30;38.60
19248;DHT22;9758;48.640;8.148;2022-07-10T12:06:26;24.40;38.60
19248;DHT22;9758;48.640;8.148;2022-07-10T12:08:54;24.40;38.40
19248;DHT22;9758;48.640;8.148;2022-07-10T12:11:22;24.50;38.60
19248;DHT22;9758;48.640;8.148;2022-07-10T12:13:50;24.50;38.30
19248;DHT22;9758;48.640;8.148;2022-07-10T12:16:19;24.50;38.30
19248;DHT22;9758;48.640;8.148;2022-07-10T12:18:46;24.50;38.20
19248;DHT22;9758;48.640;8.148;2022-07-10T12:21:15;24.60;38.10
19248;DHT22;9758;48.640;8.148;2022-07-10T12:23:56;24.50;38.00
19248;DHT22;9758;48.640;8.148;2022-07-10T12:26:32;24.60;38.10
19248;DHT22;9758;48.640;8.148;2022-07-10T12:28:59;24.60;38.10
19248;DHT22;9758;48.640;8.148;2022-07-10T12:31:27;24.70;38.10
19248;DHT22;9758;48.640;8.148;2022-07-10T12:33:56;24.70;37.90
19248;DHT22;9758;48.640;8.148;2022-07-10T12:36:43;24.70;37.80
19248;DHT22;9758;48.640;8.148;2022-07-10T12:39:10;24.70;37.60
19248;DHT22;9758;48.640;8.148;2022-07-10T12:41:55;24.70;37.60
19248;DHT22;9758;48.640;8.148;2022-07-10T12:44:46;24.70;37.60
19248;DHT22;9758;48.640;8.148;2022-07-10T12:47:14;24.70;37.50
19248;DHT22;9758;48.640;8.148;2022-07-10T12:49:49;24.70;37.60
19248;DHT22;9758;48.640;8.148;2022-07-10T12:52:22;24.80;37.50
19248;DHT22;9758;48.640;8.148;2022-07-10T12:54:53;24.80;36.80
19248;DHT22;9758;48.640;8.148;2022-07-10T12:57:31;24.60;37.00
19248;DHT22;9758;48.640;8.148;2022-07-10T13:00:03;24.60;37.40
19248;DHT22;9758;48.640;8.148;2022-07-10T13:02:30;24.60;37.50
19248;DHT22;9758;48.640;8.148;2022-07-10T13:05:01;24.70;37.30
19248;DHT22;9758;48.640;8.148;2022-07-10T13:07:34;24.80;37.30
19248;DHT22;9758;48.640;8.148;2022-07-10T13:10:02;24.80;37.00
19248;DHT22;9758;48.640;8.148;2022-07-10T13:12:34;24.90;37.20
19248;DHT22;9758;48.640;8.148;2022-07-10T13:15:01;24.90;37.10
19248;DHT22;9758;48.640;8.148;2022-07-10T13:17:28;25.00;37.20
19248;DHT22;9758;48.640;8.148;2022-07-10T13:19:55;25.10;37.10
19248;DHT22;9758;48.640;8.148;2022-07-10T13:22:22;25.20;37.10
19248;DHT22;9758;48.640;8.148;2022-07-10T13:24:50;25.20;36.50
19248;DHT22;9758;48.640;8.148;2022-07-10T13:27:17;25.20;36.70
19248;DHT22;9758;48.640;8.148;2022-07-10T13:29:45;25.20;36.60
19248;DHT22;9758;48.640;8.148;2022-07-10T13:32:27;25.20;36.60
19248;DHT22;9758;48.640;8.148;2022-07-10T13:34:54;25.10;36.60
19248;DHT22;9758;48.640;8.148;2022-07-10T13:37:21;25.20;36.80
19248;DHT22;9758;48.640;8.148;2022-07-10T13:39:49;25.20;36.40
19248;DHT22;9758;48.640;8.148;2022-07-10T13:42:16;25.20;36.50
19248;DHT22;9758;48.640;8.148;2022-07-10T13:44:43;25.20;36.50
19248;DHT22;9758;48.640;8.148;2022-07-10T13:47:09;25.20;36.40
19248;DHT22;9758;48.640;8.148;2022-07-10T13:49:36;25.20;36.30
19248;DHT22;9758;48.640;8.148;2022-07-10T13:52:04;25.20;36.50
19248;DHT22;9758;48.640;8.148;2022-07-10T13:54:30;25.20;37.40
19248;DHT22;9758;48.640;8.148;2022-07-10T13:56:58;25.30;36.80
19248;DHT22;9758;48.640;8.148;2022-07-10T13:59:25;25.40;36.60
19248;DHT22;9758;48.640;8.148;2022-07-10T14:01:53;25.50;36.40
19248;DHT22;9758;48.640;8.148;2022-07-10T14:04:19;25.50;36.40
19248;DHT22;9758;48.640;8.148;2022-07-10T14:06:46;25.60;36.40
19248;DHT22;9758;48.640;8.148;2022-07-10T14:09:13;25.70;36.30
19248;DHT22;9758;48.640;8.148;2022-07-10T14:11:40;25.80;36.30
19248;DHT22;9758;48.640;8.148;2022-07-10T14:14:10;25.80;36.10
19248;DHT22;9758;48.640;8.148;2022-07-10T14:16:37;25.80;35.80
19248;DHT22;9758;48.640;8.148;2022-07-10T14:19:04;25.70;35.90
19248;DHT22;9758;48.640;8.148;2022-07-10T14:21:33;25.70;36.20
19248;DHT22;9758;48.640;8.148;2022-07-10T14:24:02;25.70;36.20
19248;DHT22;9758;48.640;8.148;2022-07-10T14:26:29;25.80;36.40
19248;DHT22;9758;48.640;8.148;2022-07-10T14:28:57;25.90;36.30
19248;DHT22;9758;48.640;8.148;2022-07-10T14:31:25;26.00;36.20
19248;DHT22;9758;48.640;8.148;2022-07-10T14:33:51;26.20;36.20
19248;DHT22;9758;48.640;8.148;2022-07-10T14:36:18;26.30;36.10
19248;DHT22;9758;48.640;8.148;2022-07-10T14:38:45;26.40;36.10
19248;DHT22;9758;48.640;8.148;2022-07-10T14:41:11;26.50;35.70
19248;DHT22;9758;48.640;8.148;2022-07-10T14:43:38;26.50;35.50
19248;DHT22;9758;48.640;8.148;2022-07-10T14:46:05;26.40;35.40
19248;DHT22;9758;48.640;8.148;2022-07-10T14:48:33;26.40;35.70
19248;DHT22;9758;48.640;8.148;2022-07-10T14:51:01;26.30;35.70
19248;DHT22;9758;48.640;8.148;2022-07-10T14:53:28;26.30;35.70
19248;DHT22;9758;48.640;8.148;2022-07-10T14:56:00;26.30;35.80
19248;DHT22;9758;48.640;8.148;2022-07-10T14:58:26;26.30;35.40
19248;DHT22;9758;48.640;8.148;2022-07-10T15:00:53;26.30;35.70
19248;DHT22;9758;48.640;8.148;2022-07-10T15:03:20;26.30;35.70
19248;DHT22;9758;48.640;8.148;2022-07-10T15:05:48;26.30;35.80
19248;DHT22;9758;48.640;8.148;2022-07-10T15:08:18;26.40;35.80
19248;DHT22;9758;48.640;8.148;2022-07-10T15:10:45;26.40;35.70
19248;DHT22;9758;48.640;8.148;2022-07-10T15:13:12;26.50;35.40
19248;DHT22;9758;48.640;8.148;2022-07-10T15:15:39;26.60;35.50
19248;DHT22;9758;48.640;8.148;2022-07-10T15:18:06;26.60;35.60
19248;DHT22;9758;48.640;8.148;2022-07-10T15:20:33;26.70;35.50
19248;DHT22;9758;48.640;8.148;2022-07-10T15:23:01;26.70;35.60
19248;DHT22;9758;48.640;8.148;2022-07-10T15:25:28;26.80;35.50
19248;DHT22;9758;48.640;8.148;2022-07-10T15:27:54;26.90;35.50
19248;DHT22;9758;48.640;8.148;2022-07-10T15:30:21;27.00;35.00
19248;DHT22;9758;48.640;8.148;2022-07-10T15:32:48;27.00;35.00
19248;DHT22;9758;48.640;8.148;2022-07-10T15:35:15;27.00;35.30
19248;DHT22;9758;48.640;8.148;2022-07-10T15:37:42;27.30;35.30
19248;DHT22;9758;48.640;8.148;2022-07-10T15:40:10;27.70;35.40
19248;DHT22;9758;48.640;8.148;2022-07-10T15:42:37;28.30;35.20
19248;DHT22;9758;48.640;8.148;2022-07-10T15:45:05;29.10;35.20
19248;DHT22;9758;48.640;8.148;2022-07-10T15:47:32;29.80;35.30
19248;DHT22;9758;48.640;8.148;2022-07-10T15:49:58;30.80;35.40
19248;DHT22;9758;48.640;8.148;2022-07-10T15:52:25;31.90;35.00
19248;DHT22;9758;48.640;8.148;2022-07-10T15:54:52;33.10;34.30